Time;durP1;ratioP1;P1;durP2;ratioP2;P2;SDS_P1;SDS_P2;PMS_P1;PMS_P2;Temp;Humidity;BMP_temperature;BMP_pressure;BME280_temperature;BME280_humidity;BME280_pressure;Samples;Min_cycle;Max_cycle;Signal;HPM_P1;HPM_P2
2021/01/18 00:00:20;;;;;;;21.20;9.15;;;;;;;3.54;93.24;101095.50;5057805;28;20053;-75
2021/01/18 00:02:47;;;;;;;27.88;9.45;;;;;;;3.54;91.92;101092.88;5041803;28;20061;-75
2021/01/18 00:05:14;;;;;;;35.72;9.73;;;;;;;3.53;92.44;101093.78;5038084;28;20045;-75
2021/01/18 00:07:44;;;;;;;24.50;8.98;;;;;;;3.59;91.70;101096.31;5038278;28;20060;-75
2021/01/18 00:10:12;;;;;;;19.38;8.95;;;;;;;3.52;92.17;101092.03;5037023;28;20057;-75
2021/01/18 00:12:38;;;;;;;22.35;9.07;;;;;;;3.50;91.89;101088.56;5037885;28;20493;-75
2021/01/18 00:15:05;;;;;;;16.30;8.13;;;;;;;3.49;91.56;101087.69;5037543;28;20068;-75
2021/01/18 00:17:34;;;;;;;20.33;8.75;;;;;;;3.48;91.80;101085.94;5037981;28;20054;-74
2021/01/18 00:20:00;;;;;;;22.63;8.93;;;;;;;3.50;92.10;101088.56;5037550;28;20049;-74
2021/01/18 00:22:26;;;;;;;16.52;8.27;;;;;;;3.42;91.54;101074.63;5037858;28;20095;-74
2021/01/18 00:24:52;;;;;;;22.20;7.80;;;;;;;3.53;91.66;101094.66;5036871;28;20045;-74
2021/01/18 00:27:20;;;;;;;20.23;7.70;;;;;;;3.45;91.57;101095.69;5037592;28;20158;-74
2021/01/18 00:29:48;;;;;;;25.80;9.38;;;;;;;3.46;91.04;101097.41;5036438;28;20065;-74
2021/01/18 00:32:21;;;;;;;19.27;7.40;;;;;;;3.39;91.43;101092.22;5037678;28;20387;-74
2021/01/18 00:34:47;;;;;;;16.40;8.70;;;;;;;3.42;91.40;101093.94;5037267;28;20054;-75
2021/01/18 00:37:13;;;;;;;19.67;7.75;;;;;;;3.39;91.42;101081.69;5037351;28;20057;-75
2021/01/18 00:39:39;;;;;;;24.08;9.32;;;;;;;3.28;90.55;101070.44;5037478;28;20057;-75
2021/01/18 00:42:06;;;;;;;21.75;8.32;;;;;;;3.27;92.01;101081.88;5037333;28;20049;-75
2021/01/18 00:44:32;;;;;;;20.60;8.13;;;;;;;3.25;92.21;101070.47;5037339;28;20045;-75
2021/01/18 00:46:58;;;;;;;17.23;8.00;;;;;;;3.35;91.90;101077.38;5037077;28;20174;-74
2021/01/18 00:49:24;;;;;;;17.55;7.32;;;;;;;3.43;91.92;101087.78;5035977;28;20056;-75
2021/01/18 00:51:50;;;;;;;20.65;7.65;;;;;;;3.39;90.92;101079.03;5037234;28;20049;-75
2021/01/18 00:54:16;;;;;;;20.25;7.88;;;;;;;3.38;91.33;101082.56;5037000;28;20049;-75
2021/01/18 00:56:42;;;;;;;18.83;8.48;;;;;;;3.37;91.50;101075.56;5036828;28;20054;-74
2021/01/18 00:59:08;;;;;;;22.60;8.18;;;;;;;3.33;91.82;101076.50;5036836;28;20064;-75
2021/01/18 01:01:35;;;;;;;17.48;7.68;;;;;;;3.35;91.78;101079.13;5042753;28;20060;-74
2021/01/18 01:04:01;;;;;;;22.15;8.95;;;;;;;3.26;91.80;101066.94;5056692;28;20052;-74
2021/01/18 01:06:32;;;;;;;17.30;8.30;;;;;;;3.31;90.99;101072.16;5056643;28;20496;-74
2021/01/18 01:08:59;;;;;;;20.70;7.68;;;;;;;3.33;91.72;101065.09;5056791;28;20057;-75
2021/01/18 01:11:25;;;;;;;24.52;9.70;;;;;;;3.29;91.28;101064.25;5056516;28;20139;-74
2021/01/18 01:13:51;;;;;;;22.48;8.73;;;;;;;3.20;92.11;101069.66;5056376;28;20427;-74
2021/01/18 01:16:18;;;;;;;17.38;7.20;;;;;;;3.25;91.39;101059.91;5055295;28;20049;-75
2021/01/18 01:18:44;;;;;;;21.52;7.97;;;;;;;3.21;91.99;101067.00;5056594;28;20084;-74
2021/01/18 01:21:10;;;;;;;20.17;8.25;;;;;;;3.18;92.51;101067.06;5055288;28;20561;-75
2021/01/18 01:23:37;;;;;;;19.55;8.52;;;;;;;3.21;92.20;101063.53;5056645;28;20049;-75
2021/01/18 01:26:03;;;;;;;15.20;8.27;;;;;;;3.26;91.89;101069.56;5056477;28;20114;-74
2021/01/18 01:28:29;;;;;;;19.90;8.57;;;;;;;3.30;91.59;101068.66;5056393;28;20107;-75
2021/01/18 01:30:55;;;;;;;13.60;6.80;;;;;;;3.20;91.63;101070.56;5055975;28;20057;-74
2021/01/18 01:33:21;;;;;;;23.23;8.40;;;;;;;3.16;92.17;101057.44;5056328;28;20053;-75
2021/01/18 01:35:48;;;;;;;16.15;7.80;;;;;;;3.23;92.22;101048.53;5054966;28;20049;-75
2021/01/18 01:38:14;;;;;;;25.20;8.63;;;;;;;3.23;92.50;101065.22;5056314;28;20052;-75
2021/01/18 01:40:40;;;;;;;21.05;8.30;;;;;;;3.19;92.43;101062.66;5056157;28;20045;-75
2021/01/18 01:43:06;;;;;;;24.23;8.07;;;;;;;3.21;92.02;101063.53;5055912;28;20095;-75
2021/01/18 01:45:32;;;;;;;25.58;9.85;;;;;;;3.16;92.09;101068.00;5056128;28;20045;-75
2021/01/18 01:48:00;;;;;;;20.83;8.70;;;;;;;3.14;92.63;101064.53;5055995;28;20118;-74
2021/01/18 01:50:34;;;;;;;24.25;9.48;;;;;;;3.12;92.35;101065.38;5055624;28;20048;-75
2021/01/18 01:53:21;;;;;;;19.70;7.70;;;;;;;3.16;92.60;101063.56;5054944;28;20049;-75
2021/01/18 01:55:52;;;;;;;25.13;8.57;;;;;;;3.08;92.53;101055.78;5056059;28;20328;-74
2021/01/18 01:58:19;;;;;;;23.92;9.27;;;;;;;3.12;92.92;101061.91;5054688;28;20063;-74
2021/01/18 02:00:47;;;;;;;25.60;10.13;;;;;;;3.10;92.94;101056.63;5038269;28;20454;-75
2021/01/18 02:03:30;;;;;;;21.25;8.20;;;;;;;3.14;92.23;101052.19;5035930;28;20053;-74
2021/01/18 02:05:56;;;;;;;22.92;9.70;;;;;;;3.16;92.57;101062.72;5035688;28;20119;-74
2021/01/18 02:08:23;;;;;;;25.25;9.57;;;;;;;3.10;92.76;101058.38;5035612;28;20055;-74
2021/01/18 02:10:49;;;;;;;20.05;9.45;;;;;;;3.10;92.85;101059.28;5035509;28;20351;-75
2021/01/18 02:13:18;;;;;;;27.88;9.00;;;;;;;3.14;92.92;101049.53;5035835;28;20099;-73
2021/01/18 02:15:58;;;;;;;23.55;8.98;;;;;;;3.08;92.88;101039.97;5035765;28;20057;-74
2021/01/18 02:18:37;;;;;;;26.27;9.25;;;;;;;2.97;93.26;101011.13;5035559;28;20049;-74
2021/01/18 02:21:34;;;;;;;27.00;11.00;;;;;;;3.20;92.46;101038.91;5035610;28;20053;-73
2021/01/18 02:24:24;;;;;;;23.77;9.85;;;;;;;3.16;93.17;101037.19;5035443;28;20057;-74
2021/01/18 02:27:00;;;;;;;22.33;9.88;;;;;;;3.17;92.69;101040.72;5035681;28;20057;-75
2021/01/18 02:29:53;;;;;;;28.67;10.10;;;;;;;3.16;92.96;101046.88;5035313;28;20435;-75
2021/01/18 02:32:58;;;;;;;29.20;10.57;;;;;;;3.03;93.08;101033.88;5035219;28;20351;-75
2021/01/18 02:36:04;;;;;;;18.80;9.70;;;;;;;3.14;93.41;101049.53;5035272;28;20049;-75
2021/01/18 02:38:38;;;;;;;33.30;10.63;;;;;;;3.22;93.18;101047.66;5035304;28;20072;-74
2021/01/18 02:41:28;;;;;;;27.92;10.60;;;;;;;3.14;93.17;101035.50;5035196;28;20057;-74
2021/01/18 02:44:00;;;;;;;26.90;12.27;;;;;;;3.11;93.42;101049.59;5035256;28;20657;-75
2021/01/18 02:46:28;;;;;;;26.15;11.55;;;;;;;3.12;93.54;101035.50;5035184;28;20337;-74
2021/01/18 02:48:55;;;;;;;27.13;11.52;;;;;;;3.16;93.37;101023.16;5017760;28;20111;-75
2021/01/18 02:51:25;;;;;;;34.03;13.52;;;;;;;3.14;93.07;101033.72;5035055;28;20049;-73
2021/01/18 02:53:59;;;;;;;35.78;14.00;;;;;;;3.07;93.45;101042.63;5034408;28;20057;-74
2021/01/18 02:56:31;;;;;;;31.92;12.40;;;;;;;3.11;93.62;101050.47;5034958;28;20060;-74
2021/01/18 02:58:58;;;;;;;26.35;13.77;;;;;;;3.10;93.33;101046.09;5034873;28;20351;-74
2021/01/18 03:01:42;;;;;;;32.75;13.75;;;;;;;3.06;93.53;101032.97;5038683;28;20066;-75
2021/01/18 03:04:21;;;;;;;31.63;13.07;;;;;;;3.15;93.17;101034.59;5055048;28;20049;-74
2021/01/18 03:06:57;;;;;;;30.45;12.25;;;;;;;3.14;93.21;101033.72;5053853;28;20186;-74
2021/01/18 03:09:29;;;;;;;36.97;12.27;;;;;;;3.21;92.74;101050.34;5055219;28;20057;-73
2021/01/18 03:12:04;;;;;;;25.15;10.77;;;;;;;3.22;92.94;101052.91;5054925;28;20446;-75
2021/01/18 03:14:36;;;;;;;31.25;12.50;;;;;;;3.21;92.92;101051.19;5054962;28;20377;-74
2021/01/18 03:17:05;;;;;;;25.20;11.98;;;;;;;3.11;92.76;101033.78;5054791;28;20056;-74
2021/01/18 03:19:44;;;;;;;35.22;11.48;;;;;;;3.29;92.65;101061.63;5054821;28;20074;-74
2021/01/18 03:22:21;;;;;;;27.73;12.20;;;;;;;3.25;92.54;101057.28;5055236;28;20338;-73
2021/01/18 03:24:52;;;;;;;30.05;11.95;;;;;;;3.20;92.32;101059.13;5055053;28;20045;-74
2021/01/18 03:27:19;;;;;;;26.13;11.65;;;;;;;3.31;92.31;101058.97;5053499;28;20366;-74
2021/01/18 03:29:45;;;;;;;31.27;12.27;;;;;;;3.31;92.09;101057.19;5054269;28;20049;-74
2021/01/18 03:32:11;;;;;;;30.60;11.93;;;;;;;3.12;92.04;101035.50;5053440;28;20053;-74
2021/01/18 03:34:37;;;;;;;32.08;11.55;;;;;;;3.35;91.88;101052.72;5053648;28;20091;-74
2021/01/18 03:37:04;;;;;;;31.67;12.82;;;;;;;3.31;91.33;101054.53;5054783;28;20119;-74
2021/01/18 03:39:30;;;;;;;30.63;12.63;;;;;;;3.32;91.49;101056.28;5054760;28;20061;-74
2021/01/18 03:41:56;;;;;;;23.38;11.52;;;;;;;3.26;91.81;101049.34;5054480;28;20049;-74
2021/01/18 03:44:23;;;;;;;27.73;11.25;;;;;;;3.36;91.48;101060.63;5054873;28;20049;-74
2021/01/18 03:46:53;;;;;;;31.63;10.88;;;;;;;3.26;91.82;101051.09;5054553;28;20049;-74
2021/01/18 03:49:20;;;;;;;28.27;10.88;;;;;;;3.31;91.58;101053.69;5054275;28;20053;-74
2021/01/18 03:51:46;;;;;;;30.92;10.30;;;;;;;3.26;91.53;101044.06;5053490;28;20095;-74
2021/01/18 03:54:12;;;;;;;32.58;10.88;;;;;;;3.18;92.17;101038.06;5053202;28;20053;-74
2021/01/18 03:56:42;;;;;;;32.15;10.73;;;;;;;3.23;92.05;101043.25;5054289;28;20060;-74
2021/01/18 03:59:08;;;;;;;27.42;10.52;;;;;;;3.17;92.18;101053.91;5054393;28;20060;-74
2021/01/18 04:01:37;;;;;;;40.13;10.73;;;;;;;3.15;91.94;101047.78;5047988;28;20081;-74
2021/01/18 04:04:04;;;;;;;33.85;11.82;;;;;;;3.02;92.41;101033.91;5034453;28;20451;-73
2021/01/18 04:06:34;;;;;;;34.70;10.52;;;;;;;3.12;92.70;101051.34;5037078;28;20056;-73
2021/01/18 04:09:01;;;;;;;27.63;11.43;;;;;;;3.12;92.43;101054.84;5036638;28;20064;-74
2021/01/18 04:11:27;;;;;;;35.90;11.40;;;;;;;3.10;92.26;101053.09;5038097;28;20057;-73
2021/01/18 04:13:53;;;;;;;32.55;11.65;;;;;;;3.09;92.54;101056.66;5037175;28;20049;-75
2021/01/18 04:16:19;;;;;;;32.90;11.75;;;;;;;3.07;93.26;101048.78;5036845;28;20053;-74
2021/01/18 04:18:45;;;;;;;28.55;11.07;;;;;;;3.14;93.04;101049.53;5036642;28;20057;-74
2021/01/18 04:21:15;;;;;;;28.92;12.05;;;;;;;3.17;93.12;101044.22;5038004;28;20053;-74
2021/01/18 04:23:41;;;;;;;30.35;10.98;;;;;;;3.15;93.15;101037.25;5037515;28;20397;-74
2021/01/18 04:26:07;;;;;;;30.38;9.77;;;;;;;3.13;92.90;101039.88;5037407;28;20348;-73
2021/01/18 04:28:33;;;;;;;21.35;9.93;;;;;;;3.09;93.01;101040.81;5037515;28;20116;-74
2021/01/18 04:31:00;;;;;;;28.38;10.63;;;;;;;3.09;93.15;101039.06;5037172;28;20431;-74
2021/01/18 04:33:26;;;;;;;29.85;10.63;;;;;;;3.09;93.04;101030.28;5037629;28;20045;-75
2021/01/18 04:35:55;;;;;;;32.58;11.52;;;;;;;3.05;93.24;101028.59;5036779;28;20056;-75
2021/01/18 04:38:24;;;;;;;31.77;10.93;;;;;;;3.03;92.99;101027.72;5036133;28;20057;-75
2021/01/18 04:40:50;;;;;;;32.60;12.35;;;;;;;2.98;93.51;101027.81;5036963;28;20053;-74
2021/01/18 04:43:17;;;;;;;33.10;11.05;;;;;;;3.02;93.52;101034.78;5035581;28;20099;-73
2021/01/18 04:45:45;;;;;;;33.50;11.27;;;;;;;3.04;93.35;101035.63;5035190;28;20457;-74
2021/01/18 04:48:12;;;;;;;34.67;11.63;;;;;;;3.05;93.55;101034.72;5036022;28;20049;-75
2021/01/18 04:50:39;;;;;;;36.67;11.57;;;;;;;3.09;93.23;101032.91;5035924;28;20076;-75
2021/01/18 04:53:14;;;;;;;27.02;11.73;;;;;;;3.08;93.08;101029.41;5034396;28;20053;-74
2021/01/18 04:55:43;;;;;;;24.95;11.15;;;;;;;3.11;93.30;101029.34;5035990;28;20041;-74
2021/01/18 04:58:17;;;;;;;33.35;12.52;;;;;;;3.19;93.40;101023.97;5036987;28;20061;-74
2021/01/18 05:00:55;;;;;;;34.25;11.43;;;;;;;3.14;92.96;101017.88;5036933;28;20057;-74
2021/01/18 05:03:23;;;;;;;41.05;12.80;;;;;;;3.17;92.66;101022.25;5037141;28;20119;-74
2021/01/18 05:05:53;;;;;;;34.17;11.90;;;;;;;3.14;93.33;101030.22;5035772;28;20057;-75
2021/01/18 05:08:41;;;;;;;29.52;12.23;;;;;;;3.15;93.16;101027.53;5036777;28;20058;-74
2021/01/18 05:11:14;;;;;;;36.92;12.00;;;;;;;3.10;93.21;101021.47;5036978;28;20060;-75
2021/01/18 05:13:41;;;;;;;36.28;12.68;;;;;;;3.07;93.27;101019.78;5035844;28;20045;-75
2021/01/18 05:16:08;;;;;;;38.58;14.30;;;;;;;3.16;92.78;101026.63;5036051;28;20446;-75
2021/01/18 05:18:36;;;;;;;28.70;12.73;;;;;;;3.01;93.06;101022.50;5036484;28;20132;-74
2021/01/18 05:21:06;;;;;;;35.35;13.25;;;;;;;3.12;92.92;101025.81;5035200;28;20049;-74
2021/01/18 05:23:38;;;;;;;35.85;13.55;;;;;;;3.11;93.39;101029.34;5036485;28;20064;-73
2021/01/18 05:26:17;;;;;;;33.55;13.77;;;;;;;3.16;92.45;101018.72;5036436;28;20051;-73
2021/01/18 05:28:48;;;;;;;38.83;13.50;;;;;;;3.11;92.55;101028.50;5035502;28;20049;-75
2021/01/18 05:31:40;;;;;;;35.78;13.75;;;;;;;3.16;92.68;101031.06;5036234;28;20057;-75
2021/01/18 05:34:14;;;;;;;48.80;14.43;;;;;;;3.16;92.77;101025.78;5035179;28;20053;-74
2021/01/18 05:36:43;;;;;;;31.30;13.65;;;;;;;3.18;92.78;101035.41;5036617;28;20053;-74
2021/01/18 05:39:19;;;;;;;43.92;15.15;;;;;;;3.11;92.70;101034.63;5036423;28;20057;-74
2021/01/18 05:41:50;;;;;;;36.13;13.25;;;;;;;3.13;92.51;101031.97;5035180;28;20419;-75
2021/01/18 05:44:17;;;;;;;42.22;15.13;;;;;;;3.10;93.08;101040.81;5035217;28;20049;-75
2021/01/18 05:46:48;;;;;;;30.67;13.35;;;;;;;3.10;92.82;101030.25;5035808;28;20502;-74
2021/01/18 05:49:18;;;;;;;42.25;14.63;;;;;;;3.02;92.51;101028.63;5036196;28;20064;-75
2021/01/18 05:51:51;;;;;;;43.17;14.27;;;;;;;3.05;93.06;101032.09;5036073;28;20060;-75
2021/01/18 05:54:22;;;;;;;41.15;14.07;;;;;;;3.13;92.39;101039.88;5034639;28;20056;-76
2021/01/18 05:56:51;;;;;;;;;;;;;;;3.03;92.56;101031.25;5036251;28;20054;-73
2021/01/18 05:59:22;;;;;;;41.92;14.00;;;;;;;2.88;92.72;101020.94;5034575;28;19929;-74
2021/01/18 06:01:49;;;;;;;;;;;;;;;2.99;92.87;101043.63;5042304;28;20131;-75
2021/01/18 06:04:18;;;;;;;28.80;12.95;;;;;;;3.01;93.16;101040.06;5035819;28;19921;-74
2021/01/18 06:06:58;;;;;;;37.22;13.18;;;;;;;2.96;93.05;101041.00;5036042;28;20053;-74
2021/01/18 06:09:41;;;;;;;37.08;13.63;;;;;;;2.96;93.53;101030.47;5036053;28;20053;-74
2021/01/18 06:12:27;;;;;;;39.60;13.13;;;;;;;2.91;93.55;101032.31;5035574;28;20438;-74
2021/01/18 06:15:03;;;;;;;34.08;13.82;;;;;;;2.99;92.88;101042.72;5035643;28;20049;-74
2021/01/18 06:17:30;;;;;;;40.13;12.98;;;;;;;2.94;93.26;101034.03;5035665;28;20067;-74
2021/01/18 06:20:00;;;;;;;41.53;13.63;;;;;;;2.99;92.65;101045.38;5035859;28;20116;-74
2021/01/18 06:22:28;;;;;;;36.40;12.68;;;;;;;2.98;92.83;101039.25;5035832;28;20064;-74
2021/01/18 06:24:56;;;;;;;32.72;12.88;;;;;;;3.03;92.86;101038.28;5034441;28;20053;-74
2021/01/18 06:27:33;;;;;;;35.03;13.52;;;;;;;2.98;92.73;101033.97;5034755;28;20061;-74
2021/01/18 06:29:59;;;;;;;32.53;11.52;;;;;;;2.99;92.73;101029.53;5035096;28;20348;-74
2021/01/18 06:32:31;;;;;;;38.47;12.82;;;;;;;2.92;92.79;101028.78;5034419;28;20053;-73
2021/01/18 06:35:01;;;;;;;30.60;12.43;;;;;;;3.05;92.94;101034.72;5035185;28;20053;-73
2021/01/18 06:37:32;;;;;;;47.10;14.30;;;;;;;3.01;92.71;101053.25;5034231;28;20053;-74
2021/01/18 06:40:03;;;;;;;38.05;12.45;;;;;;;3.03;92.85;101043.56;5035206;28;20394;-75
2021/01/18 06:42:30;;;;;;;42.28;13.07;;;;;;;3.04;92.62;101042.69;5035234;28;20053;-73
2021/01/18 06:44:56;;;;;;;38.45;13.43;;;;;;;3.09;92.46;101054.91;5034071;28;20046;-74
2021/01/18 06:47:33;;;;;;;39.78;13.85;;;;;;;3.04;92.54;101033.00;5034954;28;20050;-76
2021/01/18 06:50:06;;;;;;;29.90;12.07;;;;;;;3.03;92.30;101031.25;5040628;28;20088;-76
2021/01/18 06:52:34;;;;;;;43.78;15.50;;;;;;;3.11;92.66;101046.97;5055046;28;20048;-75
2021/01/18 06:55:07;;;;;;;33.95;12.90;;;;;;;3.20;91.92;101033.63;5053711;28;20064;-75
2021/01/18 06:57:57;;;;;;;34.60;12.95;;;;;;;3.10;91.85;101029.38;5054972;28;20060;-75
2021/01/18 07:00:24;;;;;;;35.50;14.05;;;;;;;3.15;92.03;101038.09;5044153;28;20051;-75
2021/01/18 07:02:56;;;;;;;35.97;13.10;;;;;;;3.17;91.93;101044.22;5043951;28;20045;-78
2021/01/18 07:05:44;;;;;;;41.67;14.55;;;;;;;3.20;91.74;101038.91;5042591;28;20120;-77
2021/01/18 07:08:19;;;;;;;34.53;12.63;;;;;;;3.16;91.81;101042.47;5045471;28;20059;-76
2021/01/18 07:10:53;;;;;;;46.53;14.20;;;;;;;3.19;91.62;101041.53;5046055;28;20141;-76
2021/01/18 07:13:20;;;;;;;42.53;13.40;;;;;;;3.22;91.41;101042.38;5043784;28;20056;-76
2021/01/18 07:15:50;;;;;;;55.92;14.57;;;;;;;3.20;91.28;101041.53;5043825;28;20128;-75
2021/01/18 07:18:18;;;;;;;49.55;16.50;;;;;;;3.14;91.52;101033.72;5043120;28;20442;-77
2021/01/18 07:20:58;;;;;;;34.00;13.27;;;;;;;3.19;91.45;101047.72;5046414;28;20049;-81
2021/01/18 07:23:29;;;;;;;44.47;13.27;;;;;;;3.23;91.24;101044.09;5044420;28;20573;-77
2021/01/18 07:26:18;;;;;;;41.42;13.05;;;;;;;3.22;90.93;101055.56;5059307;28;20059;-75
2021/01/18 07:28:53;;;;;;;44.67;13.88;;;;;;;3.23;91.15;101037.97;5045664;28;20045;-77
2021/01/18 07:31:23;;;;;;;35.05;12.68;;;;;;;3.28;90.83;101043.16;5045149;28;20147;-79
2021/01/18 07:33:50;;;;;;;38.58;13.50;;;;;;;3.18;90.82;101031.91;5044196;28;20056;-76
2021/01/18 07:36:24;;;;;;;43.85;14.55;;;;;;;3.21;90.94;101039.78;5041467;28;20136;-79
2021/01/18 07:38:50;;;;;;;42.95;12.77;;;;;;;3.18;91.12;101032.78;5045701;28;20053;-78
2021/01/18 07:41:20;;;;;;;33.70;12.52;;;;;;;3.21;90.92;101030.06;5048673;28;20048;-77
2021/01/18 07:43:48;;;;;;;36.22;14.05;;;;;;;3.20;90.83;101038.00;5049439;28;20052;-77
2021/01/18 07:46:25;;;;;;;39.63;12.30;;;;;;;3.21;90.81;101031.88;5046382;28;20343;-76
2021/01/18 07:48:59;;;;;;;40.10;12.65;;;;;;;3.20;90.96;101020.44;5045168;28;20046;-76
2021/01/18 07:51:32;;;;;;;38.25;13.52;;;;;;;3.19;90.49;101031.00;5038697;28;20061;-77
2021/01/18 07:53:58;;;;;;;31.35;11.73;;;;;;;3.21;90.79;101030.06;5035219;28;20536;-76
2021/01/18 07:56:25;;;;;;;34.67;12.45;;;;;;;3.19;90.55;101021.31;5037639;28;20397;-77
2021/01/18 07:59:02;;;;;;;30.88;11.88;;;;;;;3.05;90.63;101008.34;5039996;28;20054;-77
2021/01/18 08:01:33;;;;;;;34.83;12.70;;;;;;;3.22;90.37;101031.81;5047683;28;20045;-77
2021/01/18 08:04:19;;;;;;;30.25;10.48;;;;;;;3.20;90.28;101022.19;5037072;28;20054;-77
2021/01/18 08:07:04;;;;;;;26.63;10.65;;;;;;;3.21;89.84;101024.81;5037154;28;20427;-77
2021/01/18 08:09:32;;;;;;;32.83;11.15;;;;;;;3.21;89.73;101018.66;5037665;28;20045;-78
2021/01/18 08:12:33;;;;;;;22.95;9.90;;;;;;;3.11;89.89;101020.59;5038257;28;20115;-77
2021/01/18 08:15:07;;;;;;;29.95;9.82;;;;;;;3.07;90.24;101026.78;5037680;28;20347;-78
2021/01/18 08:17:37;;;;;;;27.40;9.52;;;;;;;2.99;90.17;101013.72;5037655;28;20061;-77
2021/01/18 08:20:13;;;;;;;30.77;10.68;;;;;;;2.91;90.33;101002.44;5035210;28;20390;-77
2021/01/18 08:22:49;;;;;;;29.13;9.77;;;;;;;3.15;90.12;101034.59;5035700;28;20057;-77
2021/01/18 08:25:15;;;;;;;26.35;9.45;;;;;;;3.09;90.04;101040.81;5035864;28;20128;-78
2021/01/18 08:27:47;;;;;;;22.10;9.32;;;;;;;3.07;90.44;101030.31;5035430;28;20321;-76
2021/01/18 08:30:19;;;;;;;25.75;9.85;;;;;;;3.00;90.32;101031.31;5037264;28;20089;-74
2021/01/18 08:33:06;;;;;;;24.85;8.10;;;;;;;2.99;89.90;101040.97;5037786;28;20111;-78
2021/01/18 08:35:34;;;;;;;26.42;9.30;;;;;;;3.05;90.39;101044.41;5037366;28;20052;-77
2021/01/18 08:38:06;;;;;;;24.92;8.80;;;;;;;2.81;90.22;101005.22;5037487;28;20443;-76
2021/01/18 08:40:37;;;;;;;19.77;8.10;;;;;;;3.01;90.11;101042.72;5037270;28;20087;-76
2021/01/18 08:43:04;;;;;;;28.08;8.68;;;;;;;3.00;89.95;101049.78;5036128;28;20053;-77
2021/01/18 08:45:36;;;;;;;17.85;8.80;;;;;;;3.01;90.77;101037.44;5037331;28;20053;-76
2021/01/18 08:48:05;;;;;;;21.92;7.82;;;;;;;3.01;90.08;101037.44;5037299;28;20057;-77
2021/01/18 08:50:41;;;;;;;19.77;7.15;;;;;;;2.99;89.68;101035.69;5036683;28;20077;-77
2021/01/18 08:53:46;;;;;;;19.80;7.75;;;;;;;3.04;89.83;101048.81;5039003;28;20053;-77
2021/01/18 08:56:25;;;;;;;20.02;7.75;;;;;;;3.06;89.91;101046.16;5055472;28;20052;-77
2021/01/18 08:58:51;;;;;;;30.63;8.00;;;;;;;3.11;89.84;101045.19;5056036;28;20402;-77
2021/01/18 09:01:25;;;;;;;29.95;8.27;;;;;;;3.10;89.81;101046.09;5052184;28;20427;-77
2021/01/18 09:04:00;;;;;;;20.10;8.00;;;;;;;3.16;89.49;101038.97;5041925;28;20048;-78
2021/01/18 09:06:27;;;;;;;21.33;7.28;;;;;;;3.20;89.36;101046.81;5057198;28;20068;-78
2021/01/18 09:09:07;;;;;;;21.55;8.30;;;;;;;3.12;89.80;101036.38;5056692;28;20357;-78
2021/01/18 09:11:35;;;;;;;26.88;7.82;;;;;;;3.21;89.66;101042.41;5056745;28;20052;-78
2021/01/18 09:14:01;;;;;;;24.08;7.55;;;;;;;3.22;89.37;101049.44;5054801;28;20115;-78
2021/01/18 09:16:27;;;;;;;21.23;7.82;;;;;;;3.22;89.71;101036.25;5056116;28;20052;-78
2021/01/18 09:19:06;;;;;;;18.42;7.35;;;;;;;3.32;89.32;101043.09;5056773;28;20152;-78
2021/01/18 09:21:33;;;;;;;24.00;8.32;;;;;;;3.34;89.25;101043.97;5056216;28;20492;-77
2021/01/18 09:24:06;;;;;;;22.80;7.57;;;;;;;3.31;89.09;101038.72;5056370;28;20049;-77
2021/01/18 09:26:32;;;;;;;17.77;7.88;;;;;;;3.29;89.93;101040.53;5056396;28;20056;-78
2021/01/18 09:28:58;;;;;;;19.20;7.68;;;;;;;3.29;89.10;101042.28;5057228;28;20048;-78
2021/01/18 09:31:25;;;;;;;19.27;7.40;;;;;;;3.29;89.49;101043.16;5072596;28;20057;-78
2021/01/18 09:33:54;;;;;;;19.65;7.57;;;;;;;3.21;89.16;101029.22;5054790;28;20049;-77
2021/01/18 09:36:24;;;;;;;26.48;7.82;;;;;;;3.22;89.89;101038.88;5057019;28;20575;-78
2021/01/18 09:38:51;;;;;;;21.10;7.03;;;;;;;3.25;89.57;101049.38;5057264;28;20063;-78
2021/01/18 09:41:17;;;;;;;24.15;8.07;;;;;;;3.18;89.53;101039.81;5056430;28;20064;-77
2021/01/18 09:43:44;;;;;;;22.15;7.20;;;;;;;3.19;89.52;101046.81;5056690;28;20052;-78
2021/01/18 09:46:15;;;;;;;22.27;7.75;;;;;;;3.25;89.37;101059.91;5055777;28;20113;-78
2021/01/18 09:48:48;;;;;;;21.45;6.85;;;;;;;3.20;89.23;101059.13;5053389;28;20494;-77
2021/01/18 09:51:15;;;;;;;27.73;7.75;;;;;;;3.14;89.47;101053.97;5055567;28;20049;-77
2021/01/18 09:53:43;;;;;;;17.90;6.47;;;;;;;3.18;89.28;101064.44;5054512;28;20434;-78
2021/01/18 09:56:15;;;;;;;23.80;7.82;;;;;;;3.27;89.74;101066.03;5053628;28;20048;-77
2021/01/18 09:58:54;;;;;;;20.83;7.55;;;;;;;3.30;89.21;101066.00;5054072;28;20062;-77
2021/01/18 10:01:25;;;;;;;20.98;7.15;;;;;;;3.37;89.05;101066.75;5053767;28;20052;-77
2021/01/18 10:04:05;;;;;;;21.90;8.18;;;;;;;3.43;89.25;101056.09;5053827;28;20045;-78
2021/01/18 10:06:33;;;;;;;22.55;7.05;;;;;;;3.56;88.77;101050.63;5053584;28;20056;-76
2021/01/18 10:09:12;;;;;;;21.05;6.30;;;;;;;3.72;88.42;101046.81;5053737;28;20095;-77
2021/01/18 10:11:48;;;;;;;24.33;7.80;;;;;;;3.80;87.55;101047.56;5054903;28;20056;-78
2021/01/18 10:14:19;;;;;;;23.00;6.57;;;;;;;3.87;87.76;101047.44;5050192;28;20458;-78
2021/01/18 10:16:58;;;;;;;19.27;6.75;;;;;;;3.94;87.57;101046.41;5052419;28;20060;-77
2021/01/18 10:19:25;;;;;;;17.35;6.00;;;;;;;4.05;86.88;101036.50;5055333;28;20446;-76
2021/01/18 10:21:52;;;;;;;17.88;6.18;;;;;;;4.00;86.77;101041.03;5055163;28;20049;-76
2021/01/18 10:24:30;;;;;;;17.08;5.85;;;;;;;4.09;86.41;101032.06;5055360;28;20052;-76
2021/01/18 10:27:13;;;;;;;19.38;6.50;;;;;;;4.07;87.19;101028.53;5050865;28;20130;-76
2021/01/18 10:29:42;;;;;;;17.48;6.68;;;;;;;4.08;86.31;101039.09;5050202;28;20435;-76
2021/01/18 10:32:09;;;;;;;16.75;5.75;;;;;;;4.09;87.11;101029.41;5055480;28;20048;-76
2021/01/18 10:34:37;;;;;;;19.30;6.07;;;;;;;4.18;86.15;101020.41;5054911;28;20118;-76
2021/01/18 10:37:19;;;;;;;17.90;5.82;;;;;;;4.06;86.06;100996.00;5055061;28;20439;-77
2021/01/18 10:39:46;;;;;;;16.38;5.45;;;;;;;4.35;85.89;101014.75;5054482;28;20451;-76
2021/01/18 10:42:17;;;;;;;24.65;5.75;;;;;;;4.42;85.01;101013.72;5055466;28;20059;-76
2021/01/18 10:44:55;;;;;;;18.13;5.38;;;;;;;4.45;84.41;101005.75;5055082;28;20052;-77
2021/01/18 10:47:26;;;;;;;13.50;5.20;;;;;;;4.60;84.71;101008.94;5053352;28;20053;-77
2021/01/18 10:49:59;;;;;;;;;;;;;;;4.61;83.67;101005.41;5054716;28;20110;-76
2021/01/18 10:52:41;;;;;;;19.08;4.90;;;;;;;4.88;83.48;100997.72;5053996;28;19921;-75
2021/01/18 10:55:12;;;;;;;25.88;5.13;;;;;;;4.98;83.19;100987.78;5046006;28;20060;-75
2021/01/18 10:57:45;;;;;;;20.20;5.00;;;;;;;5.02;82.65;100995.63;5055453;28;20080;-76
2021/01/18 11:00:13;;;;;;;19.80;4.47;;;;;;;4.98;82.91;100996.63;5053132;28;20064;-74
2021/01/18 11:02:42;;;;;;;21.50;5.53;;;;;;;5.00;83.08;100984.22;5037864;28;20079;-75
2021/01/18 11:05:15;;;;;;;17.52;4.40;;;;;;;4.83;83.20;100981.97;5053044;28;20049;-75
2021/01/18 11:07:54;;;;;;;16.85;4.28;;;;;;;4.76;83.62;100970.66;5054466;28;20057;-75
2021/01/18 11:10:22;;;;;;;15.15;4.45;;;;;;;4.73;83.89;100983.97;5058397;28;20056;-74
2021/01/18 11:12:59;;;;;;;18.42;4.90;;;;;;;4.66;83.91;100955.94;5048752;28;20053;-77
2021/01/18 11:15:38;;;;;;;17.70;5.05;;;;;;;4.68;84.13;100974.41;5055758;28;20048;-75
2021/01/18 11:18:08;;;;;;;21.35;5.15;;;;;;;4.71;84.67;100972.56;5057456;28;20446;-81
2021/01/18 11:20:37;;;;;;;12.35;3.70;;;;;;;4.73;84.42;100972.50;5057289;28;20055;-78
2021/01/18 11:23:09;;;;;;;16.30;5.40;;;;;;;4.82;84.36;100963.50;5059164;28;20335;-77
2021/01/18 11:25:36;;;;;;;19.65;4.40;;;;;;;4.80;83.96;100952.09;5042007;28;20049;-78
2021/01/18 11:28:10;;;;;;;19.80;5.47;;;;;;;4.90;83.58;100961.53;5055669;28;20128;-76
2021/01/18 11:30:37;;;;;;;15.95;5.18;;;;;;;5.05;82.46;100948.84;5057975;28;20544;-75
2021/01/18 11:33:05;;;;;;;17.67;4.50;;;;;;;5.11;82.97;100952.19;5045770;28;20459;-77
2021/01/18 11:35:32;;;;;;;18.27;4.93;;;;;;;5.04;82.74;100945.31;5038812;28;20049;-77
2021/01/18 11:37:58;;;;;;;14.07;4.20;;;;;;;4.98;82.78;100929.59;5038832;28;20056;-78
2021/01/18 11:40:24;;;;;;;26.75;4.50;;;;;;;5.10;82.77;100941.63;5021136;28;20045;-77